sensor_id;sensor_type;location;lat;lon;timestamp;P1;durP1;ratioP1;P2;durP2;ratioP2
1402;SDS011;696;48.546;9.896;2023-12-28T00:01:39;0.45;;;0.45;;
1402;SDS011;696;48.546;9.896;2023-12-28T00:04:05;0.43;;;0.43;;
1402;SDS011;696;48.546;9.896;2023-12-28T00:06:30;0.40;;;0.40;;
1402;SDS011;696;48.546;9.896;2023-12-28T00:08:55;0.50;;;0.50;;
1402;SDS011;696;48.546;9.896;2023-12-28T00:11:21;0.50;;;0.50;;
1402;SDS011;696;48.546;9.896;2023-12-28T00:13:46;0.40;;;0.40;;
1402;SDS011;696;48.546;9.896;2023-12-28T00:16:12;0.40;;;0.40;;
1402;SDS011;696;48.546;9.896;2023-12-28T00:18:37;0.40;;;0.40;;
1402;SDS011;696;48.546;9.896;2023-12-28T00:21:02;0.40;;;0.40;;
1402;SDS011;696;48.546;9.896;2023-12-28T00:23:28;0.40;;;0.40;;
1402;SDS011;696;48.546;9.896;2023-12-28T00:25:53;0.40;;;0.40;;
1402;SDS011;696;48.546;9.896;2023-12-28T00:28:18;0.40;;;0.40;;
1402;SDS011;696;48.546;9.896;2023-12-28T00:30:44;0.50;;;0.50;;
1402;SDS011;696;48.546;9.896;2023-12-28T00:33:09;0.40;;;0.40;;
1402;SDS011;696;48.546;9.896;2023-12-28T00:35:34;0.40;;;0.40;;
1402;SDS011;696;48.546;9.896;2023-12-28T00:38:00;0.40;;;0.40;;
1402;SDS011;696;48.546;9.896;2023-12-28T00:40:25;0.43;;;0.43;;
1402;SDS011;696;48.546;9.896;2023-12-28T00:42:50;0.45;;;0.45;;
1402;SDS011;696;48.546;9.896;2023-12-28T00:45:16;0.50;;;0.50;;
1402;SDS011;696;48.546;9.896;2023-12-28T00:47:41;0.40;;;0.40;;
1402;SDS011;696;48.546;9.896;2023-12-28T00:50:08;0.50;;;0.50;;
1402;SDS011;696;48.546;9.896;2023-12-28T00:52:34;0.43;;;0.43;;
1402;SDS011;696;48.546;9.896;2023-12-28T00:54:59;0.40;;;0.40;;
1402;SDS011;696;48.546;9.896;2023-12-28T00:57:25;0.45;;;0.45;;
1402;SDS011;696;48.546;9.896;2023-12-28T00:59:50;0.40;;;0.40;;
1402;SDS011;696;48.546;9.896;2023-12-28T01:02:15;0.40;;;0.40;;
1402;SDS011;696;48.546;9.896;2023-12-28T01:04:41;0.40;;;0.40;;
1402;SDS011;696;48.546;9.896;2023-12-28T01:07:06;0.47;;;0.47;;
1402;SDS011;696;48.546;9.896;2023-12-28T01:09:31;0.40;;;0.40;;
1402;SDS011;696;48.546;9.896;2023-12-28T01:12:00;0.40;;;0.40;;
1402;SDS011;696;48.546;9.896;2023-12-28T01:14:25;0.40;;;0.40;;
1402;SDS011;696;48.546;9.896;2023-12-28T01:16:51;0.43;;;0.43;;
1402;SDS011;696;48.546;9.896;2023-12-28T01:19:16;0.40;;;0.40;;
1402;SDS011;696;48.546;9.896;2023-12-28T01:21:41;0.40;;;0.40;;
1402;SDS011;696;48.546;9.896;2023-12-28T01:24:07;0.40;;;0.40;;
1402;SDS011;696;48.546;9.896;2023-12-28T01:26:32;0.50;;;0.50;;
1402;SDS011;696;48.546;9.896;2023-12-28T01:28:59;0.40;;;0.40;;
1402;SDS011;696;48.546;9.896;2023-12-28T01:31:28;0.50;;;0.50;;
1402;SDS011;696;48.546;9.896;2023-12-28T01:33:55;0.40;;;0.40;;
1402;SDS011;696;48.546;9.896;2023-12-28T01:36:20;0.40;;;0.40;;
1402;SDS011;696;48.546;9.896;2023-12-28T01:38:46;0.50;;;0.50;;
1402;SDS011;696;48.546;9.896;2023-12-28T01:41:11;0.40;;;0.40;;
1402;SDS011;696;48.546;9.896;2023-12-28T01:43:38;0.40;;;0.40;;
1402;SDS011;696;48.546;9.896;2023-12-28T01:46:04;0.40;;;0.40;;
1402;SDS011;696;48.546;9.896;2023-12-28T01:48:31;0.43;;;0.43;;
1402;SDS011;696;48.546;9.896;2023-12-28T01:50:57;0.40;;;0.40;;
1402;SDS011;696;48.546;9.896;2023-12-28T01:53:23;0.50;;;0.50;;
1402;SDS011;696;48.546;9.896;2023-12-28T01:55:49;0.45;;;0.45;;
1402;SDS011;696;48.546;9.896;2023-12-28T01:58:14;0.57;;;0.57;;
1402;SDS011;696;48.546;9.896;2023-12-28T02:00:40;0.50;;;0.50;;
1402;SDS011;696;48.546;9.896;2023-12-28T02:03:07;0.50;;;0.50;;
1402;SDS011;696;48.546;9.896;2023-12-28T02:05:34;0.50;;;0.50;;
1402;SDS011;696;48.546;9.896;2023-12-28T02:08:02;0.50;;;0.50;;
1402;SDS011;696;48.546;9.896;2023-12-28T02:10:27;0.40;;;0.40;;
1402;SDS011;696;48.546;9.896;2023-12-28T02:12:53;0.50;;;0.50;;
1402;SDS011;696;48.546;9.896;2023-12-28T02:15:18;0.40;;;0.40;;
1402;SDS011;696;48.546;9.896;2023-12-28T02:17:50;0.50;;;0.50;;
1402;SDS011;696;48.546;9.896;2023-12-28T02:20:22;0.50;;;0.50;;
1402;SDS011;696;48.546;9.896;2023-12-28T02:22:47;0.50;;;0.50;;
1402;SDS011;696;48.546;9.896;2023-12-28T02:25:13;0.50;;;0.50;;
1402;SDS011;696;48.546;9.896;2023-12-28T02:27:42;0.45;;;0.45;;
1402;SDS011;696;48.546;9.896;2023-12-28T02:30:10;0.50;;;0.50;;
1402;SDS011;696;48.546;9.896;2023-12-28T02:32:39;0.50;;;0.50;;
1402;SDS011;696;48.546;9.896;2023-12-28T02:37:53;0.40;;;0.40;;
1402;SDS011;696;48.546;9.896;2023-12-28T02:40:21;0.50;;;0.50;;
1402;SDS011;696;48.546;9.896;2023-12-28T02:42:47;0.60;;;0.60;;
1402;SDS011;696;48.546;9.896;2023-12-28T02:45:12;0.47;;;0.47;;
1402;SDS011;696;48.546;9.896;2023-12-28T02:47:38;0.47;;;0.47;;
1402;SDS011;696;48.546;9.896;2023-12-28T02:50:03;0.50;;;0.50;;
1402;SDS011;696;48.546;9.896;2023-12-28T02:52:29;0.50;;;0.50;;
1402;SDS011;696;48.546;9.896;2023-12-28T02:54:55;0.50;;;0.50;;
1402;SDS011;696;48.546;9.896;2023-12-28T02:57:20;0.50;;;0.50;;
1402;SDS011;696;48.546;9.896;2023-12-28T02:59:45;0.50;;;0.50;;
1402;SDS011;696;48.546;9.896;2023-12-28T03:02:11;0.50;;;0.50;;
1402;SDS011;696;48.546;9.896;2023-12-28T03:04:36;0.50;;;0.50;;
1402;SDS011;696;48.546;9.896;2023-12-28T03:07:03;0.47;;;0.47;;
1402;SDS011;696;48.546;9.896;2023-12-28T03:09:30;0.50;;;0.50;;
1402;SDS011;696;48.546;9.896;2023-12-28T03:11:55;0.50;;;0.50;;
1402;SDS011;696;48.546;9.896;2023-12-28T03:14:20;0.50;;;0.50;;
1402;SDS011;696;48.546;9.896;2023-12-28T03:16:46;0.40;;;0.40;;
1402;SDS011;696;48.546;9.896;2023-12-28T03:19:11;0.50;;;0.50;;
1402;SDS011;696;48.546;9.896;2023-12-28T03:21:38;0.60;;;0.60;;
1402;SDS011;696;48.546;9.896;2023-12-28T03:24:04;0.50;;;0.50;;
1402;SDS011;696;48.546;9.896;2023-12-28T03:26:30;0.40;;;0.40;;
1402;SDS011;696;48.546;9.896;2023-12-28T03:28:55;0.52;;;0.52;;
1402;SDS011;696;48.546;9.896;2023-12-28T03:31:20;0.43;;;0.43;;
1402;SDS011;696;48.546;9.896;2023-12-28T03:33:46;0.50;;;0.50;;
1402;SDS011;696;48.546;9.896;2023-12-28T03:36:18;0.40;;;0.40;;
1402;SDS011;696;48.546;9.896;2023-12-28T03:38:44;0.50;;;0.50;;
1402;SDS011;696;48.546;9.896;2023-12-28T03:41:16;0.50;;;0.50;;
1402;SDS011;696;48.546;9.896;2023-12-28T03:43:43;0.50;;;0.50;;
1402;SDS011;696;48.546;9.896;2023-12-28T03:46:09;0.40;;;0.40;;
1402;SDS011;696;48.546;9.896;2023-12-28T03:48:35;0.40;;;0.40;;
1402;SDS011;696;48.546;9.896;2023-12-28T03:51:01;0.40;;;0.40;;
1402;SDS011;696;48.546;9.896;2023-12-28T03:53:26;0.50;;;0.50;;
1402;SDS011;696;48.546;9.896;2023-12-28T03:55:51;0.50;;;0.50;;
1402;SDS011;696;48.546;9.896;2023-12-28T03:58:17;0.47;;;0.47;;
1402;SDS011;696;48.546;9.896;2023-12-28T04:00:42;0.50;;;0.50;;
1402;SDS011;696;48.546;9.896;2023-12-28T04:03:07;0.50;;;0.50;;
1402;SDS011;696;48.546;9.896;2023-12-28T04:05:33;0.43;;;0.43;;
1402;SDS011;696;48.546;9.896;2023-12-28T04:07:58;0.30;;;0.30;;
1402;SDS011;696;48.546;9.896;2023-12-28T04:10:29;0.43;;;0.43;;
1402;SDS011;696;48.546;9.896;2023-12-28T04:12:57;0.45;;;0.45;;
1402;SDS011;696;48.546;9.896;2023-12-28T04:15:24;0.40;;;0.40;;
1402;SDS011;696;48.546;9.896;2023-12-28T04:17:50;0.40;;;0.40;;
1402;SDS011;696;48.546;9.896;2023-12-28T04:20:15;0.47;;;0.47;;
1402;SDS011;696;48.546;9.896;2023-12-28T04:22:41;0.50;;;0.50;;
1402;SDS011;696;48.546;9.896;2023-12-28T04:25:11;0.50;;;0.50;;
1402;SDS011;696;48.546;9.896;2023-12-28T04:27:41;0.40;;;0.40;;
1402;SDS011;696;48.546;9.896;2023-12-28T04:30:07;0.50;;;0.50;;
1402;SDS011;696;48.546;9.896;2023-12-28T04:32:32;0.50;;;0.50;;
1402;SDS011;696;48.546;9.896;2023-12-28T04:34:58;0.50;;;0.50;;
1402;SDS011;696;48.546;9.896;2023-12-28T04:37:24;0.40;;;0.40;;
1402;SDS011;696;48.546;9.896;2023-12-28T04:39:51;0.50;;;0.50;;
1402;SDS011;696;48.546;9.896;2023-12-28T04:42:18;0.50;;;0.50;;
1402;SDS011;696;48.546;9.896;2023-12-28T04:44:44;0.50;;;0.50;;
1402;SDS011;696;48.546;9.896;2023-12-28T04:47:10;0.60;;;0.60;;
1402;SDS011;696;48.546;9.896;2023-12-28T04:49:35;0.40;;;0.40;;
1402;SDS011;696;48.546;9.896;2023-12-28T04:52:01;0.43;;;0.43;;
1402;SDS011;696;48.546;9.896;2023-12-28T04:54:26;0.50;;;0.50;;
1402;SDS011;696;48.546;9.896;2023-12-28T04:56:52;0.50;;;0.50;;
1402;SDS011;696;48.546;9.896;2023-12-28T04:59:17;0.50;;;0.50;;
1402;SDS011;696;48.546;9.896;2023-12-28T05:01:43;0.40;;;0.40;;
1402;SDS011;696;48.546;9.896;2023-12-28T05:04:09;0.40;;;0.40;;
1402;SDS011;696;48.546;9.896;2023-12-28T05:06:35;0.45;;;0.45;;
1402;SDS011;696;48.546;9.896;2023-12-28T05:09:00;0.50;;;0.50;;
1402;SDS011;696;48.546;9.896;2023-12-28T05:11:26;0.50;;;0.50;;
1402;SDS011;696;48.546;9.896;2023-12-28T05:13:51;0.50;;;0.50;;
1402;SDS011;696;48.546;9.896;2023-12-28T05:16:17;0.45;;;0.45;;
1402;SDS011;696;48.546;9.896;2023-12-28T05:18:42;0.50;;;0.50;;
1402;SDS011;696;48.546;9.896;2023-12-28T05:21:07;0.50;;;0.50;;
1402;SDS011;696;48.546;9.896;2023-12-28T05:23:33;0.40;;;0.40;;
1402;SDS011;696;48.546;9.896;2023-12-28T05:25:58;0.50;;;0.50;;
1402;SDS011;696;48.546;9.896;2023-12-28T05:28:23;0.50;;;0.50;;
1402;SDS011;696;48.546;9.896;2023-12-28T05:30:49;0.40;;;0.40;;
1402;SDS011;696;48.546;9.896;2023-12-28T05:33:14;0.40;;;0.40;;
1402;SDS011;696;48.546;9.896;2023-12-28T05:35:40;0.50;;;0.50;;
1402;SDS011;696;48.546;9.896;2023-12-28T05:38:05;0.40;;;0.40;;
1402;SDS011;696;48.546;9.896;2023-12-28T05:40:30;0.40;;;0.40;;
1402;SDS011;696;48.546;9.896;2023-12-28T05:42:56;0.40;;;0.40;;
1402;SDS011;696;48.546;9.896;2023-12-28T05:45:21;0.50;;;0.50;;
1402;SDS011;696;48.546;9.896;2023-12-28T05:47:47;0.50;;;0.50;;
1402;SDS011;696;48.546;9.896;2023-12-28T05:50:13;0.47;;;0.47;;
1402;SDS011;696;48.546;9.896;2023-12-28T05:52:38;0.50;;;0.50;;
1402;SDS011;696;48.546;9.896;2023-12-28T05:55:04;0.40;;;0.40;;
1402;SDS011;696;48.546;9.896;2023-12-28T05:57:29;0.40;;;0.40;;
1402;SDS011;696;48.546;9.896;2023-12-28T05:59:56;0.40;;;0.40;;
1402;SDS011;696;48.546;9.896;2023-12-28T06:02:22;0.40;;;0.40;;
1402;SDS011;696;48.546;9.896;2023-12-28T06:04:47;0.50;;;0.50;;
1402;SDS011;696;48.546;9.896;2023-12-28T06:07:12;0.50;;;0.50;;
1402;SDS011;696;48.546;9.896;2023-12-28T06:09:38;0.50;;;0.50;;
1402;SDS011;696;48.546;9.896;2023-12-28T06:12:04;0.50;;;0.50;;
1402;SDS011;696;48.546;9.896;2023-12-28T06:14:30;0.40;;;0.40;;
1402;SDS011;696;48.546;9.896;2023-12-28T06:16:55;0.50;;;0.50;;
1402;SDS011;696;48.546;9.896;2023-12-28T06:19:21;0.40;;;0.40;;
1402;SDS011;696;48.546;9.896;2023-12-28T06:21:47;0.40;;;0.40;;
1402;SDS011;696;48.546;9.896;2023-12-28T06:24:15;0.50;;;0.50;;
1402;SDS011;696;48.546;9.896;2023-12-28T06:26:41;0.45;;;0.45;;
1402;SDS011;696;48.546;9.896;2023-12-28T06:29:07;0.50;;;0.50;;
1402;SDS011;696;48.546;9.896;2023-12-28T06:31:34;0.50;;;0.50;;
1402;SDS011;696;48.546;9.896;2023-12-28T06:34:04;0.43;;;0.43;;
1402;SDS011;696;48.546;9.896;2023-12-28T06:36:30;0.40;;;0.40;;
1402;SDS011;696;48.546;9.896;2023-12-28T06:38:56;0.43;;;0.43;;
1402;SDS011;696;48.546;9.896;2023-12-28T06:41:21;0.40;;;0.40;;
1402;SDS011;696;48.546;9.896;2023-12-28T06:43:47;0.40;;;0.40;;
1402;SDS011;696;48.546;9.896;2023-12-28T06:46:12;0.40;;;0.40;;
1402;SDS011;696;48.546;9.896;2023-12-28T06:48:38;0.45;;;0.45;;
1402;SDS011;696;48.546;9.896;2023-12-28T06:51:05;0.40;;;0.40;;
1402;SDS011;696;48.546;9.896;2023-12-28T06:53:34;0.47;;;0.47;;
1402;SDS011;696;48.546;9.896;2023-12-28T06:55:59;0.50;;;0.50;;
1402;SDS011;696;48.546;9.896;2023-12-28T06:58:24;0.40;;;0.40;;
1402;SDS011;696;48.546;9.896;2023-12-28T07:00:50;0.40;;;0.40;;
1402;SDS011;696;48.546;9.896;2023-12-28T07:03:15;0.40;;;0.40;;
1402;SDS011;696;48.546;9.896;2023-12-28T07:05:41;0.40;;;0.40;;
1402;SDS011;696;48.546;9.896;2023-12-28T07:08:06;0.40;;;0.40;;
1402;SDS011;696;48.546;9.896;2023-12-28T07:10:31;0.40;;;0.40;;
1402;SDS011;696;48.546;9.896;2023-12-28T07:12:57;0.40;;;0.40;;
1402;SDS011;696;48.546;9.896;2023-12-28T07:15:22;0.40;;;0.40;;
1402;SDS011;696;48.546;9.896;2023-12-28T07:17:47;0.40;;;0.40;;
1402;SDS011;696;48.546;9.896;2023-12-28T07:20:13;0.50;;;0.50;;
1402;SDS011;696;48.546;9.896;2023-12-28T07:22:38;0.40;;;0.40;;
1402;SDS011;696;48.546;9.896;2023-12-28T07:25:04;0.40;;;0.40;;
1402;SDS011;696;48.546;9.896;2023-12-28T07:27:30;0.50;;;0.50;;
1402;SDS011;696;48.546;9.896;2023-12-28T07:29:56;0.40;;;0.40;;
1402;SDS011;696;48.546;9.896;2023-12-28T07:32:21;0.40;;;0.40;;
1402;SDS011;696;48.546;9.896;2023-12-28T07:34:50;0.30;;;0.30;;
1402;SDS011;696;48.546;9.896;2023-12-28T07:37:16;0.50;;;0.50;;
1402;SDS011;696;48.546;9.896;2023-12-28T07:39:41;0.30;;;0.30;;
1402;SDS011;696;48.546;9.896;2023-12-28T07:42:07;0.45;;;0.45;;
1402;SDS011;696;48.546;9.896;2023-12-28T07:44:32;0.35;;;0.35;;
1402;SDS011;696;48.546;9.896;2023-12-28T07:46:57;0.30;;;0.30;;
1402;SDS011;696;48.546;9.896;2023-12-28T07:49:23;0.40;;;0.40;;
1402;SDS011;696;48.546;9.896;2023-12-28T07:51:48;0.32;;;0.32;;
1402;SDS011;696;48.546;9.896;2023-12-28T07:54:13;0.30;;;0.30;;
1402;SDS011;696;48.546;9.896;2023-12-28T07:56:39;0.30;;;0.30;;
1402;SDS011;696;48.546;9.896;2023-12-28T07:59:05;0.40;;;0.40;;
1402;SDS011;696;48.546;9.896;2023-12-28T08:01:31;0.40;;;0.40;;
1402;SDS011;696;48.546;9.896;2023-12-28T08:03:58;0.32;;;0.32;;
1402;SDS011;696;48.546;9.896;2023-12-28T08:06:24;0.30;;;0.30;;
1402;SDS011;696;48.546;9.896;2023-12-28T08:08:49;0.30;;;0.30;;
1402;SDS011;696;48.546;9.896;2023-12-28T08:11:14;0.38;;;0.38;;
1402;SDS011;696;48.546;9.896;2023-12-28T08:13:40;0.30;;;0.30;;
1402;SDS011;696;48.546;9.896;2023-12-28T08:16:05;0.30;;;0.30;;
1402;SDS011;696;48.546;9.896;2023-12-28T08:18:31;0.30;;;0.30;;
1402;SDS011;696;48.546;9.896;2023-12-28T08:20:57;0.30;;;0.30;;
1402;SDS011;696;48.546;9.896;2023-12-28T08:23:22;0.30;;;0.30;;
1402;SDS011;696;48.546;9.896;2023-12-28T08:25:47;0.30;;;0.30;;
1402;SDS011;696;48.546;9.896;2023-12-28T08:28:13;0.40;;;0.40;;
1402;SDS011;696;48.546;9.896;2023-12-28T08:30:39;0.30;;;0.30;;
1402;SDS011;696;48.546;9.896;2023-12-28T08:33:05;0.30;;;0.30;;
1402;SDS011;696;48.546;9.896;2023-12-28T08:35:30;0.30;;;0.30;;
1402;SDS011;696;48.546;9.896;2023-12-28T08:37:55;0.40;;;0.40;;
1402;SDS011;696;48.546;9.896;2023-12-28T08:40:21;0.30;;;0.30;;
1402;SDS011;696;48.546;9.896;2023-12-28T08:42:46;0.30;;;0.30;;
1402;SDS011;696;48.546;9.896;2023-12-28T08:45:11;0.30;;;0.30;;
1402;SDS011;696;48.546;9.896;2023-12-28T08:47:37;0.30;;;0.30;;
1402;SDS011;696;48.546;9.896;2023-12-28T08:50:02;0.30;;;0.30;;
1402;SDS011;696;48.546;9.896;2023-12-28T08:52:28;0.32;;;0.32;;
1402;SDS011;696;48.546;9.896;2023-12-28T08:54:53;0.30;;;0.30;;
1402;SDS011;696;48.546;9.896;2023-12-28T08:57:20;0.30;;;0.30;;
1402;SDS011;696;48.546;9.896;2023-12-28T08:59:45;0.30;;;0.30;;
1402;SDS011;696;48.546;9.896;2023-12-28T09:02:11;0.35;;;0.35;;
1402;SDS011;696;48.546;9.896;2023-12-28T09:04:36;0.38;;;0.38;;
1402;SDS011;696;48.546;9.896;2023-12-28T09:07:03;0.30;;;0.30;;
1402;SDS011;696;48.546;9.896;2023-12-28T09:09:29;0.30;;;0.30;;
1402;SDS011;696;48.546;9.896;2023-12-28T09:11:54;0.30;;;0.30;;
1402;SDS011;696;48.546;9.896;2023-12-28T09:14:20;0.30;;;0.30;;
1402;SDS011;696;48.546;9.896;2023-12-28T09:16:45;0.30;;;0.30;;
1402;SDS011;696;48.546;9.896;2023-12-28T09:19:11;0.30;;;0.30;;
1402;SDS011;696;48.546;9.896;2023-12-28T09:21:36;0.30;;;0.30;;
1402;SDS011;696;48.546;9.896;2023-12-28T09:24:03;0.30;;;0.30;;
1402;SDS011;696;48.546;9.896;2023-12-28T09:26:28;0.30;;;0.30;;
1402;SDS011;696;48.546;9.896;2023-12-28T09:28:53;0.20;;;0.20;;
1402;SDS011;696;48.546;9.896;2023-12-28T09:31:20;0.30;;;0.30;;
1402;SDS011;696;48.546;9.896;2023-12-28T09:33:45;0.30;;;0.30;;
1402;SDS011;696;48.546;9.896;2023-12-28T09:36:10;0.22;;;0.22;;
1402;SDS011;696;48.546;9.896;2023-12-28T09:38:38;0.30;;;0.30;;
1402;SDS011;696;48.546;9.896;2023-12-28T09:41:07;0.22;;;0.22;;
1402;SDS011;696;48.546;9.896;2023-12-28T09:43:51;0.30;;;0.30;;
1402;SDS011;696;48.546;9.896;2023-12-28T09:46:19;0.20;;;0.20;;
1402;SDS011;696;48.546;9.896;2023-12-28T09:48:45;0.20;;;0.20;;
1402;SDS011;696;48.546;9.896;2023-12-28T09:51:11;0.30;;;0.30;;
1402;SDS011;696;48.546;9.896;2023-12-28T09:53:36;0.30;;;0.30;;
1402;SDS011;696;48.546;9.896;2023-12-28T09:56:02;0.30;;;0.30;;
1402;SDS011;696;48.546;9.896;2023-12-28T09:58:28;0.22;;;0.22;;
1402;SDS011;696;48.546;9.896;2023-12-28T10:00:56;0.30;;;0.30;;
1402;SDS011;696;48.546;9.896;2023-12-28T10:03:21;0.20;;;0.20;;
1402;SDS011;696;48.546;9.896;2023-12-28T10:05:47;0.30;;;0.30;;
1402;SDS011;696;48.546;9.896;2023-12-28T10:08:13;0.20;;;0.20;;
1402;SDS011;696;48.546;9.896;2023-12-28T10:10:41;0.30;;;0.30;;
1402;SDS011;696;48.546;9.896;2023-12-28T10:13:07;0.30;;;0.30;;
1402;SDS011;696;48.546;9.896;2023-12-28T10:15:34;0.22;;;0.22;;
1402;SDS011;696;48.546;9.896;2023-12-28T10:18:00;0.22;;;0.22;;
1402;SDS011;696;48.546;9.896;2023-12-28T10:20:26;0.30;;;0.30;;
1402;SDS011;696;48.546;9.896;2023-12-28T10:22:52;0.20;;;0.20;;
1402;SDS011;696;48.546;9.896;2023-12-28T10:25:17;0.20;;;0.20;;
1402;SDS011;696;48.546;9.896;2023-12-28T10:27:43;0.20;;;0.20;;
1402;SDS011;696;48.546;9.896;2023-12-28T10:30:08;0.20;;;0.20;;
1402;SDS011;696;48.546;9.896;2023-12-28T10:32:35;0.20;;;0.20;;
1402;SDS011;696;48.546;9.896;2023-12-28T10:35:00;0.20;;;0.20;;
1402;SDS011;696;48.546;9.896;2023-12-28T10:37:26;0.30;;;0.30;;
1402;SDS011;696;48.546;9.896;2023-12-28T10:39:52;0.28;;;0.28;;
1402;SDS011;696;48.546;9.896;2023-12-28T10:42:24;0.30;;;0.30;;
1402;SDS011;696;48.546;9.896;2023-12-28T10:44:55;0.20;;;0.20;;
1402;SDS011;696;48.546;9.896;2023-12-28T10:47:31;0.20;;;0.20;;
1402;SDS011;696;48.546;9.896;2023-12-28T10:50:00;0.20;;;0.20;;
1402;SDS011;696;48.546;9.896;2023-12-28T10:52:27;0.20;;;0.20;;
1402;SDS011;696;48.546;9.896;2023-12-28T10:54:59;0.20;;;0.20;;
1402;SDS011;696;48.546;9.896;2023-12-28T10:58:17;0.28;;;0.28;;
1402;SDS011;696;48.546;9.896;2023-12-28T11:00:25;0.20;;;0.20;;
1402;SDS011;696;48.546;9.896;2023-12-28T11:02:55;0.30;;;0.30;;
1402;SDS011;696;48.546;9.896;2023-12-28T11:05:23;0.20;;;0.20;;
1402;SDS011;696;48.546;9.896;2023-12-28T11:07:49;0.20;;;0.20;;
1402;SDS011;696;48.546;9.896;2023-12-28T11:10:18;0.20;;;0.20;;
1402;SDS011;696;48.546;9.896;2023-12-28T11:12:45;0.20;;;0.20;;
1402;SDS011;696;48.546;9.896;2023-12-28T11:15:10;0.20;;;0.20;;
1402;SDS011;696;48.546;9.896;2023-12-28T11:17:37;0.20;;;0.20;;
1402;SDS011;696;48.546;9.896;2023-12-28T11:20:03;0.20;;;0.20;;
1402;SDS011;696;48.546;9.896;2023-12-28T11:22:30;0.20;;;0.20;;
1402;SDS011;696;48.546;9.896;2023-12-28T11:24:56;0.20;;;0.20;;
1402;SDS011;696;48.546;9.896;2023-12-28T11:27:21;0.20;;;0.20;;
1402;SDS011;696;48.546;9.896;2023-12-28T11:29:51;0.20;;;0.20;;
1402;SDS011;696;48.546;9.896;2023-12-28T11:32:17;0.17;;;0.17;;
1402;SDS011;696;48.546;9.896;2023-12-28T11:34:44;0.20;;;0.20;;
1402;SDS011;696;48.546;9.896;2023-12-28T11:37:13;0.20;;;0.20;;
1402;SDS011;696;48.546;9.896;2023-12-28T11:39:43;0.20;;;0.20;;
1402;SDS011;696;48.546;9.896;2023-12-28T11:42:09;0.20;;;0.20;;
1402;SDS011;696;48.546;9.896;2023-12-28T11:44:39;0.20;;;0.20;;
1402;SDS011;696;48.546;9.896;2023-12-28T11:47:13;0.20;;;0.20;;
1402;SDS011;696;48.546;9.896;2023-12-28T11:49:40;0.20;;;0.20;;
1402;SDS011;696;48.546;9.896;2023-12-28T11:54:53;0.10;;;0.10;;
1402;SDS011;696;48.546;9.896;2023-12-28T11:57:18;0.20;;;0.20;;
1402;SDS011;696;48.546;9.896;2023-12-28T11:59:44;0.20;;;0.20;;
1402;SDS011;696;48.546;9.896;2023-12-28T12:02:09;0.20;;;0.20;;
1402;SDS011;696;48.546;9.896;2023-12-28T12:04:36;0.17;;;0.17;;
1402;SDS011;696;48.546;9.896;2023-12-28T12:07:01;0.10;;;0.10;;
1402;SDS011;696;48.546;9.896;2023-12-28T12:09:30;0.20;;;0.20;;
1402;SDS011;696;48.546;9.896;2023-12-28T12:12:00;0.10;;;0.10;;
1402;SDS011;696;48.546;9.896;2023-12-28T12:14:26;0.20;;;0.20;;
1402;SDS011;696;48.546;9.896;2023-12-28T12:16:51;0.20;;;0.20;;
1402;SDS011;696;48.546;9.896;2023-12-28T12:19:17;0.10;;;0.10;;
1402;SDS011;696;48.546;9.896;2023-12-28T12:21:43;0.10;;;0.10;;
1402;SDS011;696;48.546;9.896;2023-12-28T12:24:09;0.20;;;0.20;;
1402;SDS011;696;48.546;9.896;2023-12-28T12:26:34;0.10;;;0.10;;
1402;SDS011;696;48.546;9.896;2023-12-28T12:29:01;0.20;;;0.20;;
1402;SDS011;696;48.546;9.896;2023-12-28T12:31:27;0.15;;;0.15;;
1402;SDS011;696;48.546;9.896;2023-12-28T12:33:53;0.20;;;0.20;;
1402;SDS011;696;48.546;9.896;2023-12-28T12:36:18;0.10;;;0.10;;
1402;SDS011;696;48.546;9.896;2023-12-28T12:38:44;0.20;;;0.20;;
1402;SDS011;696;48.546;9.896;2023-12-28T12:41:12;0.20;;;0.20;;
1402;SDS011;696;48.546;9.896;2023-12-28T12:43:38;0.20;;;0.20;;
1402;SDS011;696;48.546;9.896;2023-12-28T12:46:04;0.20;;;0.20;;
1402;SDS011;696;48.546;9.896;2023-12-28T12:48:29;0.10;;;0.10;;
1402;SDS011;696;48.546;9.896;2023-12-28T12:50:55;0.20;;;0.20;;
1402;SDS011;696;48.546;9.896;2023-12-28T12:53:21;0.20;;;0.20;;
1402;SDS011;696;48.546;9.896;2023-12-28T12:55:46;0.13;;;0.13;;
1402;SDS011;696;48.546;9.896;2023-12-28T12:58:12;0.20;;;0.20;;
1402;SDS011;696;48.546;9.896;2023-12-28T13:00:38;0.10;;;0.10;;
1402;SDS011;696;48.546;9.896;2023-12-28T13:03:07;0.20;;;0.20;;
1402;SDS011;696;48.546;9.896;2023-12-28T13:05:35;0.20;;;0.20;;
1402;SDS011;696;48.546;9.896;2023-12-28T13:08:00;0.10;;;0.10;;
1402;SDS011;696;48.546;9.896;2023-12-28T13:10:26;0.10;;;0.10;;
1402;SDS011;696;48.546;9.896;2023-12-28T13:12:51;0.10;;;0.10;;
1402;SDS011;696;48.546;9.896;2023-12-28T13:15:17;0.20;;;0.20;;
1402;SDS011;696;48.546;9.896;2023-12-28T13:20:10;0.20;;;0.20;;
1402;SDS011;696;48.546;9.896;2023-12-28T13:22:36;0.20;;;0.20;;
1402;SDS011;696;48.546;9.896;2023-12-28T13:25:01;0.20;;;0.20;;
1402;SDS011;696;48.546;9.896;2023-12-28T13:27:27;0.10;;;0.10;;
1402;SDS011;696;48.546;9.896;2023-12-28T13:29:53;0.20;;;0.20;;
1402;SDS011;696;48.546;9.896;2023-12-28T13:32:19;0.20;;;0.20;;
1402;SDS011;696;48.546;9.896;2023-12-28T13:34:46;0.20;;;0.20;;
1402;SDS011;696;48.546;9.896;2023-12-28T13:37:11;0.10;;;0.10;;
1402;SDS011;696;48.546;9.896;2023-12-28T13:39:37;0.20;;;0.20;;
1402;SDS011;696;48.546;9.896;2023-12-28T13:42:04;0.20;;;0.20;;
1402;SDS011;696;48.546;9.896;2023-12-28T13:44:32;0.20;;;0.20;;
1402;SDS011;696;48.546;9.896;2023-12-28T13:46:57;0.20;;;0.20;;
1402;SDS011;696;48.546;9.896;2023-12-28T13:49:23;0.20;;;0.20;;
1402;SDS011;696;48.546;9.896;2023-12-28T13:51:50;0.20;;;0.20;;
1402;SDS011;696;48.546;9.896;2023-12-28T13:54:16;0.10;;;0.10;;
1402;SDS011;696;48.546;9.896;2023-12-28T13:56:44;0.20;;;0.20;;
1402;SDS011;696;48.546;9.896;2023-12-28T13:59:10;0.20;;;0.20;;
1402;SDS011;696;48.546;9.896;2023-12-28T14:01:35;0.20;;;0.20;;
1402;SDS011;696;48.546;9.896;2023-12-28T14:04:01;0.20;;;0.20;;
1402;SDS011;696;48.546;9.896;2023-12-28T14:06:27;0.20;;;0.20;;
1402;SDS011;696;48.546;9.896;2023-12-28T14:08:53;0.20;;;0.20;;
1402;SDS011;696;48.546;9.896;2023-12-28T14:11:18;0.20;;;0.20;;
1402;SDS011;696;48.546;9.896;2023-12-28T14:13:43;0.17;;;0.17;;
1402;SDS011;696;48.546;9.896;2023-12-28T14:16:09;0.20;;;0.20;;
1402;SDS011;696;48.546;9.896;2023-12-28T14:18:34;0.20;;;0.20;;
1402;SDS011;696;48.546;9.896;2023-12-28T14:20:59;0.20;;;0.20;;
1402;SDS011;696;48.546;9.896;2023-12-28T14:23:25;0.20;;;0.20;;
1402;SDS011;696;48.546;9.896;2023-12-28T14:25:50;0.20;;;0.20;;
1402;SDS011;696;48.546;9.896;2023-12-28T14:28:19;0.20;;;0.20;;
1402;SDS011;696;48.546;9.896;2023-12-28T14:30:46;0.20;;;0.20;;
1402;SDS011;696;48.546;9.896;2023-12-28T14:33:12;0.10;;;0.10;;
1402;SDS011;696;48.546;9.896;2023-12-28T14:35:37;0.20;;;0.20;;
1402;SDS011;696;48.546;9.896;2023-12-28T14:38:04;0.20;;;0.20;;
1402;SDS011;696;48.546;9.896;2023-12-28T14:40:31;0.20;;;0.20;;
1402;SDS011;696;48.546;9.896;2023-12-28T14:42:57;0.20;;;0.20;;
1402;SDS011;696;48.546;9.896;2023-12-28T14:45:22;0.30;;;0.30;;
1402;SDS011;696;48.546;9.896;2023-12-28T14:47:48;0.20;;;0.20;;
1402;SDS011;696;48.546;9.896;2023-12-28T14:50:13;0.20;;;0.20;;
1402;SDS011;696;48.546;9.896;2023-12-28T14:52:38;0.20;;;0.20;;
1402;SDS011;696;48.546;9.896;2023-12-28T14:55:07;0.20;;;0.20;;
1402;SDS011;696;48.546;9.896;2023-12-28T14:57:35;0.20;;;0.20;;
1402;SDS011;696;48.546;9.896;2023-12-28T15:00:01;0.28;;;0.28;;
1402;SDS011;696;48.546;9.896;2023-12-28T15:02:26;0.20;;;0.20;;
1402;SDS011;696;48.546;9.896;2023-12-28T15:04:52;0.20;;;0.20;;
1402;SDS011;696;48.546;9.896;2023-12-28T15:07:17;0.20;;;0.20;;
1402;SDS011;696;48.546;9.896;2023-12-28T15:09:44;0.20;;;0.20;;
1402;SDS011;696;48.546;9.896;2023-12-28T15:12:10;0.20;;;0.20;;
1402;SDS011;696;48.546;9.896;2023-12-28T15:14:35;0.30;;;0.30;;
1402;SDS011;696;48.546;9.896;2023-12-28T15:17:01;0.20;;;0.20;;
1402;SDS011;696;48.546;9.896;2023-12-28T15:19:26;0.20;;;0.20;;
1402;SDS011;696;48.546;9.896;2023-12-28T15:21:52;0.20;;;0.20;;
1402;SDS011;696;48.546;9.896;2023-12-28T15:24:18;0.20;;;0.20;;
1402;SDS011;696;48.546;9.896;2023-12-28T15:26:44;0.20;;;0.20;;
1402;SDS011;696;48.546;9.896;2023-12-28T15:29:09;0.17;;;0.17;;
1402;SDS011;696;48.546;9.896;2023-12-28T15:31:34;0.20;;;0.20;;